createdAt,value
2022-08-30T00:03:14.220Z,100467.35
2022-08-30T00:08:17.306Z,100469.47
2022-08-30T00:13:21.281Z,100466.60
2022-08-30T00:18:24.614Z,100471.73
2022-08-30T00:23:27.848Z,100472.85
2022-08-30T00:28:32.029Z,100475.73
2022-08-30T00:33:34.875Z,100466.54
2022-08-30T00:38:37.615Z,100465.74
2022-08-30T00:43:40.369Z,100465.63
2022-08-30T00:48:47.960Z,100471.17
2022-08-30T00:53:55.099Z,100468.95
2022-08-30T00:59:00.629Z,100471.69
2022-08-30T01:04:05.849Z,100465.90
2022-08-30T01:09:09.302Z,100472.46
2022-08-30T01:14:13.500Z,100469.09
2022-08-30T01:19:31.200Z,100471.86
2022-08-30T01:24:35.680Z,100476.27
2022-08-30T01:29:38.481Z,100473.04
2022-08-30T01:34:41.435Z,100468.82
2022-08-30T01:39:46.905Z,100465.31
2022-08-30T01:44:49.871Z,100466.89
2022-08-30T01:49:52.586Z,100462.23
2022-08-30T01:54:55.351Z,100460.70
2022-08-30T01:59:58.457Z,100462.60
2022-08-30T02:05:01.682Z,100463.76
2022-08-30T02:10:05.124Z,100463.98
2022-08-30T02:15:09.877Z,100465.66
2022-08-30T02:20:12.837Z,100465.34
2022-08-30T02:25:20.518Z,100467.07
2022-08-30T02:30:24.150Z,100464.77
2022-08-30T02:35:26.999Z,100465.45
2022-08-30T02:40:30.012Z,100467.20
2022-08-30T02:45:33.376Z,100468.92
2022-08-30T02:50:41.089Z,100473.39
2022-08-30T02:55:44.800Z,100471.89
2022-08-30T03:00:47.557Z,100474.17
2022-08-30T03:05:50.309Z,100478.56
2022-08-30T03:10:53.007Z,100478.05
2022-08-30T03:15:56.940Z,100473.93
2022-08-30T03:20:59.630Z,100477.13
2022-08-30T03:26:02.315Z,100475.66
2022-08-30T03:31:05.831Z,100477.97
2022-08-30T03:36:10.022Z,100477.87
2022-08-30T03:41:12.733Z,100479.09
2022-08-30T03:46:16.217Z,100482.85
2022-08-30T03:51:19.309Z,100486.58
2022-08-30T03:56:22.014Z,100487.73
2022-08-30T04:01:24.742Z,100491.06
2022-08-30T04:06:28.302Z,100498.64
2022-08-30T04:11:31.516Z,100501.88
2022-08-30T04:16:34.320Z,100506.16
2022-08-30T04:21:42.961Z,100512.98
2022-08-30T04:26:46.533Z,100513.79
2022-08-30T04:31:49.249Z,100521.58
2022-08-30T04:36:52.029Z,100526.69
2022-08-30T04:41:55.084Z,100523.92
2022-08-30T04:46:57.850Z,100525.98
2022-08-30T04:52:00.541Z,100531.06
2022-08-30T04:57:03.565Z,100532.19
2022-08-30T05:02:06.283Z,100533.61
2022-08-30T05:07:09.001Z,100536.64
2022-08-30T05:12:11.741Z,100535.59
2022-08-30T05:17:16.246Z,100543.63
2022-08-30T05:22:18.946Z,100546.30
2022-08-30T05:27:21.624Z,100551.14
2022-08-30T05:32:24.959Z,100559.95
2022-08-30T05:37:28.049Z,100563.13
2022-08-30T05:42:31.470Z,100565.00
2022-08-30T05:47:34.406Z,100565.52
2022-08-30T05:52:39.534Z,100568.54
2022-08-30T05:57:42.306Z,100571.99
2022-08-30T06:02:45.375Z,100577.98
2022-08-30T06:07:48.189Z,100585.90
2022-08-30T06:12:50.888Z,100595.66
2022-08-30T06:17:53.614Z,100592.65
2022-08-30T06:22:56.282Z,100597.15
2022-08-30T06:27:59.003Z,100596.19
2022-08-30T06:33:01.942Z,100606.36
2022-08-30T06:38:05.143Z,100607.59
2022-08-30T06:43:07.928Z,100613.25
2022-08-30T06:48:10.611Z,100614.47
2022-08-30T06:53:13.296Z,100615.30
2022-08-30T06:58:16.056Z,100621.05
2022-08-30T07:03:21.594Z,100619.23
2022-08-30T07:08:25.583Z,100618.63
2022-08-30T07:13:28.871Z,100617.38
2022-08-30T07:18:50.227Z,100620.46
2022-08-30T07:23:54.684Z,100623.34
2022-08-30T07:28:57.386Z,100624.41
2022-08-30T07:34:00.262Z,100634.34
2022-08-30T07:39:05.859Z,100635.01
2022-08-30T07:44:09.634Z,100635.14
2022-08-30T07:49:13.051Z,100636.97
2022-08-30T07:54:18.785Z,100648.64
2022-08-30T07:59:23.288Z,100651.62
2022-08-30T08:04:26.123Z,100648.77
2022-08-30T08:09:29.010Z,100658.24
2022-08-30T08:14:32.866Z,100667.56
2022-08-30T08:19:35.603Z,100673.07
2022-08-30T08:24:38.522Z,100676.37
2022-08-30T08:29:41.402Z,100678.22
2022-08-30T08:34:44.165Z,100683.17
2022-08-30T08:39:46.946Z,100685.13
2022-08-30T08:45:13.211Z,100693.36
2022-08-30T08:50:18.722Z,100690.06
2022-08-30T08:55:23.411Z,100695.05
2022-08-30T09:00:26.324Z,100697.86
2022-08-30T09:05:34.645Z,100701.11
2022-08-30T09:10:50.534Z,100700.00
2022-08-30T09:15:56.762Z,100698.53
2022-08-30T09:21:07.218Z,100696.59
2022-08-30T09:26:10.038Z,100693.08
2022-08-30T09:31:21.017Z,100702.16
2022-08-30T09:36:28.283Z,100706.67
2022-08-30T09:41:41.566Z,100710.25
2022-08-30T09:46:49.042Z,100707.02
2022-08-30T09:52:07.113Z,100712.06
2022-08-30T09:57:34.213Z,100713.04
2022-08-30T10:02:46.006Z,100712.42
2022-08-30T10:08:09.857Z,100722.82
2022-08-30T10:13:33.918Z,100728.96
2022-08-30T10:18:47.304Z,100735.67
2022-08-30T10:24:01.455Z,100728.01
2022-08-30T10:29:25.965Z,100731.05
2022-08-30T10:34:41.885Z,100743.83
2022-08-30T10:39:56.203Z,100753.52
2022-08-30T10:45:13.831Z,100757.96
2022-08-30T10:50:22.698Z,100754.08
2022-08-30T10:55:33.538Z,100755.65
2022-08-30T11:00:59.262Z,100757.03
2022-08-30T11:06:23.543Z,100751.48
2022-08-30T11:11:43.542Z,100751.55
2022-08-30T11:16:50.490Z,100755.46
2022-08-30T11:22:11.018Z,100758.14
2022-08-30T11:27:41.250Z,100762.85
2022-08-30T11:33:25.814Z,100769.98
2022-08-30T11:38:29.259Z,100775.62
2022-08-30T11:43:36.542Z,100779.92
2022-08-30T11:48:51.398Z,100782.98
2022-08-30T11:54:16.526Z,100778.33
2022-08-30T11:59:28.393Z,100782.80
2022-08-30T12:04:45.825Z,100787.45
2022-08-30T12:09:48.407Z,100788.65
2022-08-30T12:14:57.621Z,100790.90
2022-08-30T12:20:00.801Z,100791.31
2022-08-30T12:25:19.150Z,100788.52
2022-08-30T12:30:28.129Z,100782.88
2022-08-30T12:35:31.624Z,100778.33
2022-08-30T12:40:37.519Z,100774.19
2022-08-30T12:45:50.714Z,100775.00
2022-08-30T12:50:57.207Z,100770.46
2022-08-30T12:56:15.400Z,100767.38
2022-08-30T13:01:35.873Z,100768.92
2022-08-30T13:06:43.840Z,100764.77
2022-08-30T13:11:50.438Z,100759.67
2022-08-30T13:17:09.645Z,100767.23
2022-08-30T13:22:38.030Z,100765.96
2022-08-30T13:27:40.845Z,100763.80
2022-08-30T13:32:44.353Z,100765.53
2022-08-30T13:37:50.825Z,100769.99
2022-08-30T13:42:54.694Z,100769.86
2022-08-30T13:47:58.365Z,100768.38
2022-08-30T13:53:01.054Z,100762.57
2022-08-30T13:58:03.741Z,100763.95
2022-08-30T14:03:07.352Z,100762.86
2022-08-30T14:13:35.381Z,100764.77
2022-08-30T14:18:39.902Z,100764.70
2022-08-30T14:23:42.731Z,100767.77
2022-08-30T14:28:45.729Z,100765.32
2022-08-30T14:33:48.819Z,100768.33
2022-08-30T14:38:51.896Z,100770.37
2022-08-30T14:43:54.765Z,100770.38
2022-08-30T14:48:57.413Z,100771.64
2022-08-30T14:54:00.145Z,100775.17
2022-08-30T14:59:03.373Z,100772.38
2022-08-30T15:04:08.718Z,100769.64
2022-08-30T15:09:15.754Z,100771.48
2022-08-30T15:14:18.462Z,100776.41
2022-08-30T15:19:21.151Z,100776.20
2022-08-30T15:24:24.856Z,100773.45
2022-08-30T15:29:33.180Z,100777.41
2022-08-30T15:34:36.160Z,100778.70
2022-08-30T15:39:38.822Z,100774.75
2022-08-30T15:44:43.511Z,100773.20
2022-08-30T15:49:46.301Z,100769.45
2022-08-30T15:54:49.969Z,100771.82
2022-08-30T15:59:54.634Z,100770.80
2022-08-30T16:04:57.280Z,100768.65
2022-08-30T16:09:59.966Z,100767.61
2022-08-30T16:15:02.769Z,100768.26
2022-08-30T16:20:07.026Z,100762.73
2022-08-30T16:25:09.856Z,100772.31
2022-08-30T16:30:13.637Z,100768.45
2022-08-30T16:35:16.811Z,100769.27
2022-08-30T16:40:19.880Z,100767.98
2022-08-30T16:45:22.622Z,100762.27
2022-08-30T16:50:26.846Z,100768.89
2022-08-30T16:55:31.301Z,100766.80
2022-08-30T17:00:34.147Z,100770.88
2022-08-30T17:05:37.192Z,100768.36
2022-08-30T17:10:41.105Z,100769.23
2022-08-30T17:15:45.851Z,100777.11
2022-08-30T17:20:48.866Z,100779.39
2022-08-30T17:25:51.790Z,100783.05
2022-08-30T17:30:55.550Z,100779.27
2022-08-30T17:35:58.569Z,100776.23
2022-08-30T17:41:03.685Z,100779.83
2022-08-30T17:46:11.778Z,100785.09
2022-08-30T17:51:14.784Z,100792.25
2022-08-30T17:56:17.820Z,100800.89
2022-08-30T18:01:21.702Z,100809.78
2022-08-30T18:06:24.393Z,100806.80
2022-08-30T18:11:29.181Z,100815.13
2022-08-30T18:16:36.513Z,100818.07
2022-08-30T18:21:39.863Z,100822.35
2022-08-30T18:26:42.999Z,100833.96
2022-08-30T18:31:46.067Z,100838.42
2022-08-30T18:36:48.757Z,100842.14
2022-08-30T18:41:54.517Z,100847.89
2022-08-30T18:47:03.603Z,100848.09
2022-08-30T18:52:10.032Z,100841.58
2022-08-30T18:57:13.643Z,100843.80
2022-08-30T19:02:17.917Z,100846.53
2022-08-30T19:07:21.635Z,100850.94
2022-08-30T19:12:31.842Z,100856.89
2022-08-30T19:17:34.642Z,100857.98
2022-08-30T19:23:06.124Z,100862.16
2022-08-30T19:28:01.787Z,100864.38
2022-08-30T19:33:05.727Z,100864.16
2022-08-30T19:38:09.204Z,100865.83
2022-08-30T19:43:11.991Z,100866.44
2022-08-30T19:48:15.118Z,100873.20
2022-08-30T19:53:19.302Z,100874.71
2022-08-30T19:58:23.387Z,100873.34
2022-08-30T20:03:26.235Z,100875.88
2022-08-30T20:08:28.941Z,100874.48
2022-08-30T20:13:33.746Z,100872.55
2022-08-30T20:18:38.374Z,100866.38
2022-08-30T20:23:43.110Z,100867.73
2022-08-30T20:28:45.873Z,100869.20
2022-08-30T20:33:48.581Z,100868.83
2022-08-30T20:38:51.354Z,100872.41
2022-08-30T20:43:54.351Z,100867.49
2022-08-30T20:49:01.537Z,100871.23
2022-08-30T20:54:04.651Z,100873.81
2022-08-30T20:59:07.486Z,100873.30
2022-08-30T21:04:12.165Z,100872.69
2022-08-30T21:09:15.469Z,100872.98
2022-08-30T21:14:18.710Z,100881.37
2022-08-30T21:19:21.499Z,100883.67
2022-08-30T21:24:24.705Z,100882.77
2022-08-30T21:29:29.306Z,100883.56
2022-08-30T21:34:52.159Z,100885.42
2022-08-30T21:39:55.188Z,100882.08
2022-08-30T21:44:57.977Z,100886.22
2022-08-30T21:50:00.693Z,100883.92
2022-08-30T21:55:04.448Z,100883.96
2022-08-30T22:00:08.514Z,100885.23
2022-08-30T22:05:11.925Z,100881.16
2022-08-30T22:10:16.855Z,100882.49
2022-08-30T22:15:19.747Z,100891.61
2022-08-30T22:20:22.633Z,100889.95
2022-08-30T22:25:26.857Z,100883.31
2022-08-30T22:30:29.641Z,100886.07
2022-08-30T22:35:34.267Z,100886.64
2022-08-30T22:40:37.028Z,100886.88
2022-08-30T22:45:40.011Z,100884.92
2022-08-30T22:50:42.823Z,100884.85
2022-08-30T22:55:45.931Z,100886.41
2022-08-30T23:00:54.480Z,100887.33
2022-08-30T23:05:58.290Z,100883.77
2022-08-30T23:11:01.136Z,100887.90
2022-08-30T23:16:07.782Z,100883.34
2022-08-30T23:21:13.717Z,100885.55
2022-08-30T23:26:39.448Z,100883.40
2022-08-30T23:32:01.022Z,100889.18
2022-08-30T23:37:22.785Z,100884.95
2022-08-30T23:42:43.840Z,100883.99
2022-08-30T23:48:05.065Z,100878.28
2022-08-30T23:53:26.644Z,100878.48
2022-08-30T23:58:47.966Z,100875.41
